sensor_id;sensor_type;location;lat;lon;timestamp;temperature;humidity
31207;DHT22;17834;52.992;8.856;2023-06-10T00:00:50;14.70;99.90
31207;DHT22;17834;52.992;8.856;2023-06-10T00:03:16;14.60;99.90
31207;DHT22;17834;52.992;8.856;2023-06-10T00:05:42;14.70;99.90
31207;DHT22;17834;52.992;8.856;2023-06-10T00:08:07;14.60;99.90
31207;DHT22;17834;52.992;8.856;2023-06-10T00:10:36;14.60;99.90
31207;DHT22;17834;52.992;8.856;2023-06-10T00:13:04;14.60;99.90
31207;DHT22;17834;52.992;8.856;2023-06-10T00:15:30;14.50;99.90
31207;DHT22;17834;52.992;8.856;2023-06-10T00:17:55;14.40;99.90
31207;DHT22;17834;52.992;8.856;2023-06-10T00:20:21;14.40;99.90
31207;DHT22;17834;52.992;8.856;2023-06-10T00:22:50;14.30;99.90
31207;DHT22;17834;52.992;8.856;2023-06-10T00:25:16;14.30;99.90
31207;DHT22;17834;52.992;8.856;2023-06-10T00:27:42;14.30;99.90
31207;DHT22;17834;52.992;8.856;2023-06-10T00:30:08;14.30;99.90
31207;DHT22;17834;52.992;8.856;2023-06-10T00:32:34;14.20;99.90
31207;DHT22;17834;52.992;8.856;2023-06-10T00:34:59;14.20;99.90
31207;DHT22;17834;52.992;8.856;2023-06-10T00:37:25;14.10;99.90
31207;DHT22;17834;52.992;8.856;2023-06-10T00:39:51;14.10;99.90
31207;DHT22;17834;52.992;8.856;2023-06-10T00:42:16;14.00;99.90
31207;DHT22;17834;52.992;8.856;2023-06-10T00:44:42;14.00;99.90
31207;DHT22;17834;52.992;8.856;2023-06-10T00:47:07;14.00;99.90
31207;DHT22;17834;52.992;8.856;2023-06-10T00:49:33;14.00;99.90
31207;DHT22;17834;52.992;8.856;2023-06-10T00:51:59;13.90;99.90
31207;DHT22;17834;52.992;8.856;2023-06-10T00:54:25;13.90;99.90
31207;DHT22;17834;52.992;8.856;2023-06-10T00:56:51;13.80;99.90
31207;DHT22;17834;52.992;8.856;2023-06-10T00:59:17;13.80;99.90
31207;DHT22;17834;52.992;8.856;2023-06-10T01:01:43;13.80;99.90
31207;DHT22;17834;52.992;8.856;2023-06-10T01:04:09;13.70;99.90
31207;DHT22;17834;52.992;8.856;2023-06-10T01:10:01;13.60;99.90
31207;DHT22;17834;52.992;8.856;2023-06-10T01:15:18;13.50;99.90
31207;DHT22;17834;52.992;8.856;2023-06-10T01:17:57;13.50;99.90
31207;DHT22;17834;52.992;8.856;2023-06-10T01:20:24;13.50;99.90
31207;DHT22;17834;52.992;8.856;2023-06-10T01:22:52;13.40;99.90
31207;DHT22;17834;52.992;8.856;2023-06-10T01:25:19;13.40;99.90
31207;DHT22;17834;52.992;8.856;2023-06-10T01:27:46;13.40;99.90
31207;DHT22;17834;52.992;8.856;2023-06-10T01:30:18;13.40;99.90
31207;DHT22;17834;52.992;8.856;2023-06-10T01:32:50;13.30;99.90
31207;DHT22;17834;52.992;8.856;2023-06-10T01:35:17;13.30;99.90
31207;DHT22;17834;52.992;8.856;2023-06-10T01:37:46;13.20;99.90
31207;DHT22;17834;52.992;8.856;2023-06-10T01:40:12;13.20;99.90
31207;DHT22;17834;52.992;8.856;2023-06-10T01:42:38;13.20;99.90
31207;DHT22;17834;52.992;8.856;2023-06-10T01:45:04;13.10;99.90
31207;DHT22;17834;52.992;8.856;2023-06-10T01:47:30;13.10;99.90
31207;DHT22;17834;52.992;8.856;2023-06-10T01:49:55;13.00;99.90
31207;DHT22;17834;52.992;8.856;2023-06-10T01:52:21;13.00;99.90
31207;DHT22;17834;52.992;8.856;2023-06-10T01:54:46;13.00;99.90
31207;DHT22;17834;52.992;8.856;2023-06-10T01:57:12;13.00;99.90
31207;DHT22;17834;52.992;8.856;2023-06-10T01:59:37;12.90;99.90
31207;DHT22;17834;52.992;8.856;2023-06-10T02:02:04;12.90;99.90
31207;DHT22;17834;52.992;8.856;2023-06-10T02:04:30;12.90;99.90
31207;DHT22;17834;52.992;8.856;2023-06-10T02:06:55;12.90;99.90
31207;DHT22;17834;52.992;8.856;2023-06-10T02:09:21;12.80;99.90
31207;DHT22;17834;52.992;8.856;2023-06-10T02:11:48;12.80;99.90
31207;DHT22;17834;52.992;8.856;2023-06-10T02:14:14;12.70;99.90
31207;DHT22;17834;52.992;8.856;2023-06-10T02:16:40;12.70;99.90
31207;DHT22;17834;52.992;8.856;2023-06-10T02:19:05;12.70;99.90
31207;DHT22;17834;52.992;8.856;2023-06-10T02:21:32;12.70;99.90
31207;DHT22;17834;52.992;8.856;2023-06-10T02:23:57;12.60;99.90
31207;DHT22;17834;52.992;8.856;2023-06-10T02:26:23;12.60;99.90
31207;DHT22;17834;52.992;8.856;2023-06-10T02:28:51;12.60;99.90
31207;DHT22;17834;52.992;8.856;2023-06-10T02:31:17;12.50;99.90
31207;DHT22;17834;52.992;8.856;2023-06-10T02:33:43;12.50;99.90
31207;DHT22;17834;52.992;8.856;2023-06-10T02:36:10;12.50;99.90
31207;DHT22;17834;52.992;8.856;2023-06-10T02:38:39;12.50;99.90
31207;DHT22;17834;52.992;8.856;2023-06-10T02:41:05;12.40;99.90
31207;DHT22;17834;52.992;8.856;2023-06-10T02:43:31;12.50;99.90
31207;DHT22;17834;52.992;8.856;2023-06-10T02:45:56;12.40;99.90
31207;DHT22;17834;52.992;8.856;2023-06-10T02:48:24;12.40;99.90
31207;DHT22;17834;52.992;8.856;2023-06-10T02:50:50;12.40;99.90
31207;DHT22;17834;52.992;8.856;2023-06-10T02:53:15;12.40;99.90
31207;DHT22;17834;52.992;8.856;2023-06-10T02:55:41;12.30;99.90
31207;DHT22;17834;52.992;8.856;2023-06-10T02:58:06;12.30;99.90
31207;DHT22;17834;52.992;8.856;2023-06-10T03:00:32;12.20;99.90
31207;DHT22;17834;52.992;8.856;2023-06-10T03:02:58;12.20;99.90
31207;DHT22;17834;52.992;8.856;2023-06-10T03:05:28;12.10;99.90
31207;DHT22;17834;52.992;8.856;2023-06-10T03:07:53;12.10;99.90
31207;DHT22;17834;52.992;8.856;2023-06-10T03:10:19;12.10;99.90
31207;DHT22;17834;52.992;8.856;2023-06-10T03:12:44;12.10;99.90
31207;DHT22;17834;52.992;8.856;2023-06-10T03:15:10;12.10;99.90
31207;DHT22;17834;52.992;8.856;2023-06-10T03:17:35;12.10;99.90
31207;DHT22;17834;52.992;8.856;2023-06-10T03:20:02;12.10;99.90
31207;DHT22;17834;52.992;8.856;2023-06-10T03:22:28;12.10;99.90
31207;DHT22;17834;52.992;8.856;2023-06-10T03:24:54;12.10;99.90
31207;DHT22;17834;52.992;8.856;2023-06-10T03:27:20;12.10;99.90
31207;DHT22;17834;52.992;8.856;2023-06-10T03:29:45;12.00;99.90
31207;DHT22;17834;52.992;8.856;2023-06-10T03:32:11;12.00;99.90
31207;DHT22;17834;52.992;8.856;2023-06-10T03:34:36;12.10;99.90
31207;DHT22;17834;52.992;8.856;2023-06-10T03:37:02;12.00;99.90
31207;DHT22;17834;52.992;8.856;2023-06-10T03:39:28;12.00;99.90
31207;DHT22;17834;52.992;8.856;2023-06-10T03:41:54;12.10;99.90
31207;DHT22;17834;52.992;8.856;2023-06-10T03:44:21;12.20;99.90
31207;DHT22;17834;52.992;8.856;2023-06-10T03:46:46;12.20;99.90
31207;DHT22;17834;52.992;8.856;2023-06-10T03:49:12;12.30;99.90
31207;DHT22;17834;52.992;8.856;2023-06-10T03:51:38;12.40;99.90
31207;DHT22;17834;52.992;8.856;2023-06-10T03:54:04;12.50;99.90
31207;DHT22;17834;52.992;8.856;2023-06-10T03:56:30;12.60;99.90
31207;DHT22;17834;52.992;8.856;2023-06-10T03:58:56;12.70;99.90
31207;DHT22;17834;52.992;8.856;2023-06-10T04:01:21;12.80;99.90
31207;DHT22;17834;52.992;8.856;2023-06-10T04:03:48;12.90;99.90
31207;DHT22;17834;52.992;8.856;2023-06-10T04:06:16;13.00;99.90
31207;DHT22;17834;52.992;8.856;2023-06-10T04:08:42;13.10;99.90
31207;DHT22;17834;52.992;8.856;2023-06-10T04:11:08;13.20;99.90
31207;DHT22;17834;52.992;8.856;2023-06-10T04:13:34;13.30;99.90
31207;DHT22;17834;52.992;8.856;2023-06-10T04:15:59;13.40;99.90
31207;DHT22;17834;52.992;8.856;2023-06-10T04:18:25;13.50;99.90
31207;DHT22;17834;52.992;8.856;2023-06-10T04:20:50;13.60;99.90
31207;DHT22;17834;52.992;8.856;2023-06-10T04:23:16;13.70;99.90
31207;DHT22;17834;52.992;8.856;2023-06-10T04:25:42;13.70;99.90
31207;DHT22;17834;52.992;8.856;2023-06-10T04:28:07;13.70;99.90
31207;DHT22;17834;52.992;8.856;2023-06-10T04:30:32;13.80;99.90
31207;DHT22;17834;52.992;8.856;2023-06-10T04:32:58;13.80;99.90
31207;DHT22;17834;52.992;8.856;2023-06-10T04:35:24;13.90;99.90
31207;DHT22;17834;52.992;8.856;2023-06-10T04:37:51;13.90;99.90
31207;DHT22;17834;52.992;8.856;2023-06-10T04:40:17;14.00;99.90
31207;DHT22;17834;52.992;8.856;2023-06-10T04:42:43;14.20;99.90
31207;DHT22;17834;52.992;8.856;2023-06-10T04:45:08;14.20;99.90
31207;DHT22;17834;52.992;8.856;2023-06-10T04:47:34;14.30;99.90
31207;DHT22;17834;52.992;8.856;2023-06-10T04:50:00;14.30;99.90
31207;DHT22;17834;52.992;8.856;2023-06-10T04:52:26;14.20;99.90
31207;DHT22;17834;52.992;8.856;2023-06-10T04:54:53;14.20;99.90
31207;DHT22;17834;52.992;8.856;2023-06-10T04:57:19;14.20;99.90
31207;DHT22;17834;52.992;8.856;2023-06-10T04:59:45;14.30;99.90
31207;DHT22;17834;52.992;8.856;2023-06-10T05:02:11;14.30;99.90
31207;DHT22;17834;52.992;8.856;2023-06-10T05:04:36;14.40;99.90
31207;DHT22;17834;52.992;8.856;2023-06-10T05:07:02;14.50;99.90
31207;DHT22;17834;52.992;8.856;2023-06-10T05:09:28;14.50;99.90
31207;DHT22;17834;52.992;8.856;2023-06-10T05:11:54;14.60;99.90
31207;DHT22;17834;52.992;8.856;2023-06-10T05:14:19;14.60;99.90
31207;DHT22;17834;52.992;8.856;2023-06-10T05:16:46;14.70;99.90
31207;DHT22;17834;52.992;8.856;2023-06-10T05:19:12;14.70;99.90
31207;DHT22;17834;52.992;8.856;2023-06-10T05:21:37;14.70;99.90
31207;DHT22;17834;52.992;8.856;2023-06-10T05:24:03;14.80;99.90
31207;DHT22;17834;52.992;8.856;2023-06-10T05:26:28;15.00;99.90
31207;DHT22;17834;52.992;8.856;2023-06-10T05:28:56;15.10;99.90
31207;DHT22;17834;52.992;8.856;2023-06-10T05:31:22;15.30;99.90
31207;DHT22;17834;52.992;8.856;2023-06-10T05:33:47;15.50;99.90
31207;DHT22;17834;52.992;8.856;2023-06-10T05:36:13;15.60;99.90
31207;DHT22;17834;52.992;8.856;2023-06-10T05:38:38;15.60;99.90
31207;DHT22;17834;52.992;8.856;2023-06-10T05:41:04;15.40;99.90
31207;DHT22;17834;52.992;8.856;2023-06-10T05:43:29;15.40;99.90
31207;DHT22;17834;52.992;8.856;2023-06-10T05:45:55;15.50;99.90
31207;DHT22;17834;52.992;8.856;2023-06-10T05:48:20;15.60;99.90
31207;DHT22;17834;52.992;8.856;2023-06-10T05:50:46;15.70;99.90
31207;DHT22;17834;52.992;8.856;2023-06-10T05:53:14;15.90;99.90
31207;DHT22;17834;52.992;8.856;2023-06-10T05:55:44;16.20;99.90
31207;DHT22;17834;52.992;8.856;2023-06-10T05:58:11;16.40;99.90
31207;DHT22;17834;52.992;8.856;2023-06-10T06:00:41;16.60;99.90
31207;DHT22;17834;52.992;8.856;2023-06-10T06:03:07;17.00;99.90
31207;DHT22;17834;52.992;8.856;2023-06-10T06:05:33;17.30;99.90
31207;DHT22;17834;52.992;8.856;2023-06-10T06:08:01;17.50;99.90
31207;DHT22;17834;52.992;8.856;2023-06-10T06:10:27;17.60;99.90
31207;DHT22;17834;52.992;8.856;2023-06-10T06:12:53;17.70;99.90
31207;DHT22;17834;52.992;8.856;2023-06-10T06:15:18;17.70;99.90
31207;DHT22;17834;52.992;8.856;2023-06-10T06:17:44;17.60;99.90
31207;DHT22;17834;52.992;8.856;2023-06-10T06:20:10;17.20;99.90
31207;DHT22;17834;52.992;8.856;2023-06-10T06:22:35;17.00;99.90
31207;DHT22;17834;52.992;8.856;2023-06-10T06:25:01;16.90;99.90
31207;DHT22;17834;52.992;8.856;2023-06-10T06:27:26;16.90;99.90
31207;DHT22;17834;52.992;8.856;2023-06-10T06:29:52;17.00;99.90
31207;DHT22;17834;52.992;8.856;2023-06-10T06:32:17;17.10;99.90
31207;DHT22;17834;52.992;8.856;2023-06-10T06:34:43;17.20;99.90
31207;DHT22;17834;52.992;8.856;2023-06-10T06:37:08;17.60;99.90
31207;DHT22;17834;52.992;8.856;2023-06-10T06:39:34;17.50;99.90
31207;DHT22;17834;52.992;8.856;2023-06-10T06:41:59;17.40;99.90
31207;DHT22;17834;52.992;8.856;2023-06-10T06:44:25;18.00;99.90
31207;DHT22;17834;52.992;8.856;2023-06-10T06:46:50;18.90;99.90
31207;DHT22;17834;52.992;8.856;2023-06-10T06:49:15;19.50;99.90
31207;DHT22;17834;52.992;8.856;2023-06-10T06:51:41;20.00;99.90
31207;DHT22;17834;52.992;8.856;2023-06-10T06:54:07;20.70;99.90
31207;DHT22;17834;52.992;8.856;2023-06-10T06:56:32;22.50;99.90
31207;DHT22;17834;52.992;8.856;2023-06-10T06:58:58;23.30;93.90
31207;DHT22;17834;52.992;8.856;2023-06-10T07:01:23;23.20;92.40
31207;DHT22;17834;52.992;8.856;2023-06-10T07:03:49;23.10;92.20
31207;DHT22;17834;52.992;8.856;2023-06-10T07:06:14;23.70;92.00
31207;DHT22;17834;52.992;8.856;2023-06-10T07:08:40;24.70;89.20
31207;DHT22;17834;52.992;8.856;2023-06-10T07:11:05;26.00;81.80
31207;DHT22;17834;52.992;8.856;2023-06-10T07:13:31;26.50;71.10
31207;DHT22;17834;52.992;8.856;2023-06-10T07:15:56;27.40;65.30
31207;DHT22;17834;52.992;8.856;2023-06-10T07:18:22;27.50;62.20
31207;DHT22;17834;52.992;8.856;2023-06-10T07:20:47;28.70;60.30
31207;DHT22;17834;52.992;8.856;2023-06-10T07:23:13;29.50;56.50
31207;DHT22;17834;52.992;8.856;2023-06-10T07:25:38;30.50;53.20
31207;DHT22;17834;52.992;8.856;2023-06-10T07:28:04;31.40;51.00
31207;DHT22;17834;52.992;8.856;2023-06-10T07:30:29;31.60;50.10
31207;DHT22;17834;52.992;8.856;2023-06-10T07:32:55;32.00;48.60
31207;DHT22;17834;52.992;8.856;2023-06-10T07:35:21;31.10;47.10
31207;DHT22;17834;52.992;8.856;2023-06-10T07:37:46;31.30;47.50
31207;DHT22;17834;52.992;8.856;2023-06-10T07:40:12;31.40;48.40
31207;DHT22;17834;52.992;8.856;2023-06-10T07:42:37;31.90;47.20
31207;DHT22;17834;52.992;8.856;2023-06-10T07:45:04;31.60;46.60
31207;DHT22;17834;52.992;8.856;2023-06-10T07:47:30;31.70;46.60
31207;DHT22;17834;52.992;8.856;2023-06-10T07:49:56;31.40;46.10
31207;DHT22;17834;52.992;8.856;2023-06-10T07:52:22;30.80;46.40
31207;DHT22;17834;52.992;8.856;2023-06-10T07:54:47;29.80;48.50
31207;DHT22;17834;52.992;8.856;2023-06-10T07:57:13;28.50;51.80
31207;DHT22;17834;52.992;8.856;2023-06-10T07:59:38;26.50;54.60
31207;DHT22;17834;52.992;8.856;2023-06-10T08:02:04;25.00;57.70
31207;DHT22;17834;52.992;8.856;2023-06-10T08:04:30;23.70;61.80
31207;DHT22;17834;52.992;8.856;2023-06-10T08:06:56;22.50;65.30
31207;DHT22;17834;52.992;8.856;2023-06-10T08:09:21;21.60;69.90
31207;DHT22;17834;52.992;8.856;2023-06-10T08:11:48;20.80;77.40
31207;DHT22;17834;52.992;8.856;2023-06-10T08:14:15;20.20;85.90
31207;DHT22;17834;52.992;8.856;2023-06-10T08:16:42;19.90;92.50
31207;DHT22;17834;52.992;8.856;2023-06-10T08:19:08;19.60;95.50
31207;DHT22;17834;52.992;8.856;2023-06-10T08:21:34;19.40;97.40
31207;DHT22;17834;52.992;8.856;2023-06-10T08:24:00;19.20;98.50
31207;DHT22;17834;52.992;8.856;2023-06-10T08:26:25;19.00;99.90
31207;DHT22;17834;52.992;8.856;2023-06-10T08:28:51;18.90;99.90
31207;DHT22;17834;52.992;8.856;2023-06-10T08:31:17;19.10;99.90
31207;DHT22;17834;52.992;8.856;2023-06-10T08:33:42;19.10;99.90
31207;DHT22;17834;52.992;8.856;2023-06-10T08:36:08;19.10;99.90
31207;DHT22;17834;52.992;8.856;2023-06-10T08:38:33;19.00;99.90
31207;DHT22;17834;52.992;8.856;2023-06-10T08:41:00;19.00;99.90
31207;DHT22;17834;52.992;8.856;2023-06-10T08:43:34;19.10;99.90
31207;DHT22;17834;52.992;8.856;2023-06-10T08:46:03;18.90;99.90
31207;DHT22;17834;52.992;8.856;2023-06-10T08:48:29;18.80;99.90
31207;DHT22;17834;52.992;8.856;2023-06-10T08:50:57;18.70;99.90
31207;DHT22;17834;52.992;8.856;2023-06-10T08:53:24;18.70;99.90
31207;DHT22;17834;52.992;8.856;2023-06-10T08:55:51;18.80;99.90
31207;DHT22;17834;52.992;8.856;2023-06-10T08:58:17;18.90;99.90
31207;DHT22;17834;52.992;8.856;2023-06-10T09:00:43;19.10;99.90
31207;DHT22;17834;52.992;8.856;2023-06-10T09:03:09;19.30;99.90
31207;DHT22;17834;52.992;8.856;2023-06-10T09:05:35;19.30;99.90
31207;DHT22;17834;52.992;8.856;2023-06-10T09:08:05;19.40;99.90
31207;DHT22;17834;52.992;8.856;2023-06-10T09:10:32;19.60;99.90
31207;DHT22;17834;52.992;8.856;2023-06-10T09:12:58;19.70;99.90
31207;DHT22;17834;52.992;8.856;2023-06-10T09:15:23;19.80;99.90
31207;DHT22;17834;52.992;8.856;2023-06-10T09:17:49;20.00;99.90
31207;DHT22;17834;52.992;8.856;2023-06-10T09:20:15;20.10;99.90
31207;DHT22;17834;52.992;8.856;2023-06-10T09:22:42;20.00;99.90
31207;DHT22;17834;52.992;8.856;2023-06-10T09:25:10;20.10;99.90
31207;DHT22;17834;52.992;8.856;2023-06-10T09:27:50;20.00;99.90
31207;DHT22;17834;52.992;8.856;2023-06-10T09:30:31;20.10;99.90
31207;DHT22;17834;52.992;8.856;2023-06-10T09:32:59;20.10;99.90
31207;DHT22;17834;52.992;8.856;2023-06-10T09:35:26;20.20;99.90
31207;DHT22;17834;52.992;8.856;2023-06-10T09:37:54;20.20;99.90
31207;DHT22;17834;52.992;8.856;2023-06-10T09:40:20;20.10;99.90
31207;DHT22;17834;52.992;8.856;2023-06-10T09:42:45;20.20;99.90
31207;DHT22;17834;52.992;8.856;2023-06-10T09:45:11;20.20;99.90
31207;DHT22;17834;52.992;8.856;2023-06-10T09:47:36;20.20;99.90
31207;DHT22;17834;52.992;8.856;2023-06-10T09:50:02;20.30;99.90
31207;DHT22;17834;52.992;8.856;2023-06-10T09:52:29;20.40;99.90
31207;DHT22;17834;52.992;8.856;2023-06-10T09:55:02;20.40;99.30
31207;DHT22;17834;52.992;8.856;2023-06-10T09:57:32;20.50;99.80
31207;DHT22;17834;52.992;8.856;2023-06-10T09:59:59;20.50;99.80
31207;DHT22;17834;52.992;8.856;2023-06-10T10:02:24;20.50;99.80
31207;DHT22;17834;52.992;8.856;2023-06-10T10:04:50;20.70;99.90
31207;DHT22;17834;52.992;8.856;2023-06-10T10:07:16;20.70;99.90
31207;DHT22;17834;52.992;8.856;2023-06-10T10:09:42;20.90;99.90
31207;DHT22;17834;52.992;8.856;2023-06-10T10:12:13;20.90;99.50
31207;DHT22;17834;52.992;8.856;2023-06-10T10:14:45;21.00;98.80
31207;DHT22;17834;52.992;8.856;2023-06-10T10:17:11;21.10;97.90
31207;DHT22;17834;52.992;8.856;2023-06-10T10:19:46;21.20;97.20
31207;DHT22;17834;52.992;8.856;2023-06-10T10:22:25;21.20;97.80
31207;DHT22;17834;52.992;8.856;2023-06-10T10:24:55;21.30;98.00
31207;DHT22;17834;52.992;8.856;2023-06-10T10:27:27;21.30;97.60
31207;DHT22;17834;52.992;8.856;2023-06-10T10:29:55;21.40;96.80
31207;DHT22;17834;52.992;8.856;2023-06-10T10:32:26;21.50;96.60
31207;DHT22;17834;52.992;8.856;2023-06-10T10:35:08;21.50;96.70
31207;DHT22;17834;52.992;8.856;2023-06-10T10:37:35;21.70;97.20
31207;DHT22;17834;52.992;8.856;2023-06-10T10:40:01;21.60;96.50
31207;DHT22;17834;52.992;8.856;2023-06-10T10:42:27;21.70;96.70
31207;DHT22;17834;52.992;8.856;2023-06-10T10:44:53;21.80;96.90
31207;DHT22;17834;52.992;8.856;2023-06-10T10:47:21;21.90;95.30
31207;DHT22;17834;52.992;8.856;2023-06-10T10:49:49;22.00;94.80
31207;DHT22;17834;52.992;8.856;2023-06-10T10:52:16;22.10;95.30
31207;DHT22;17834;52.992;8.856;2023-06-10T10:54:46;22.10;91.50
31207;DHT22;17834;52.992;8.856;2023-06-10T10:57:20;22.10;91.30
31207;DHT22;17834;52.992;8.856;2023-06-10T10:59:56;22.20;91.50
31207;DHT22;17834;52.992;8.856;2023-06-10T11:02:44;22.20;91.90
31207;DHT22;17834;52.992;8.856;2023-06-10T11:05:11;22.30;92.60
31207;DHT22;17834;52.992;8.856;2023-06-10T11:07:37;22.40;91.20
31207;DHT22;17834;52.992;8.856;2023-06-10T11:10:10;22.40;88.30
31207;DHT22;17834;52.992;8.856;2023-06-10T11:12:50;22.50;89.50
31207;DHT22;17834;52.992;8.856;2023-06-10T11:15:22;22.60;89.90
31207;DHT22;17834;52.992;8.856;2023-06-10T11:18:10;22.70;86.70
31207;DHT22;17834;52.992;8.856;2023-06-10T11:31:26;23.00;85.20
31207;DHT22;17834;52.992;8.856;2023-06-10T11:33:57;23.00;83.60
31207;DHT22;17834;52.992;8.856;2023-06-10T11:36:23;23.10;85.00
31207;DHT22;17834;52.992;8.856;2023-06-10T11:39:03;23.20;79.10
31207;DHT22;17834;52.992;8.856;2023-06-10T11:41:30;23.30;75.00
31207;DHT22;17834;52.992;8.856;2023-06-10T11:43:57;23.40;73.90
31207;DHT22;17834;52.992;8.856;2023-06-10T11:46:23;23.40;71.80
31207;DHT22;17834;52.992;8.856;2023-06-10T11:48:53;23.40;71.90
31207;DHT22;17834;52.992;8.856;2023-06-10T11:51:19;23.60;70.40
31207;DHT22;17834;52.992;8.856;2023-06-10T11:53:46;23.70;64.60
31207;DHT22;17834;52.992;8.856;2023-06-10T11:56:12;23.80;62.00
31207;DHT22;17834;52.992;8.856;2023-06-10T11:58:39;23.90;62.50
31207;DHT22;17834;52.992;8.856;2023-06-10T12:01:07;24.10;63.30
31207;DHT22;17834;52.992;8.856;2023-06-10T12:03:37;24.10;62.40
31207;DHT22;17834;52.992;8.856;2023-06-10T12:06:05;24.20;61.30
31207;DHT22;17834;52.992;8.856;2023-06-10T12:08:33;24.30;60.80
31207;DHT22;17834;52.992;8.856;2023-06-10T12:10:59;24.40;61.10
31207;DHT22;17834;52.992;8.856;2023-06-10T12:13:26;24.50;61.30
31207;DHT22;17834;52.992;8.856;2023-06-10T12:15:52;24.60;59.30
31207;DHT22;17834;52.992;8.856;2023-06-10T12:18:22;24.60;55.70
31207;DHT22;17834;52.992;8.856;2023-06-10T12:20:48;24.70;57.10
31207;DHT22;17834;52.992;8.856;2023-06-10T12:23:16;24.80;58.00
31207;DHT22;17834;52.992;8.856;2023-06-10T12:25:55;24.80;57.20
31207;DHT22;17834;52.992;8.856;2023-06-10T12:28:25;24.80;57.00
31207;DHT22;17834;52.992;8.856;2023-06-10T12:30:51;24.80;56.40
31207;DHT22;17834;52.992;8.856;2023-06-10T12:33:18;24.90;56.20
31207;DHT22;17834;52.992;8.856;2023-06-10T12:35:49;25.00;55.20
31207;DHT22;17834;52.992;8.856;2023-06-10T12:38:18;25.10;56.10
31207;DHT22;17834;52.992;8.856;2023-06-10T12:40:46;25.10;56.50
31207;DHT22;17834;52.992;8.856;2023-06-10T12:43:12;25.20;55.50
31207;DHT22;17834;52.992;8.856;2023-06-10T12:45:39;25.20;55.60
31207;DHT22;17834;52.992;8.856;2023-06-10T12:48:22;25.30;55.90
31207;DHT22;17834;52.992;8.856;2023-06-10T12:50:55;25.30;55.40
31207;DHT22;17834;52.992;8.856;2023-06-10T12:53:21;25.40;56.70
31207;DHT22;17834;52.992;8.856;2023-06-10T12:55:48;25.50;56.60
31207;DHT22;17834;52.992;8.856;2023-06-10T12:58:13;25.60;59.50
31207;DHT22;17834;52.992;8.856;2023-06-10T13:00:40;25.70;63.10
31207;DHT22;17834;52.992;8.856;2023-06-10T13:03:08;25.70;59.70
31207;DHT22;17834;52.992;8.856;2023-06-10T13:05:35;25.60;55.70
31207;DHT22;17834;52.992;8.856;2023-06-10T13:08:03;25.70;57.60
31207;DHT22;17834;52.992;8.856;2023-06-10T13:10:28;25.70;56.40
31207;DHT22;17834;52.992;8.856;2023-06-10T13:12:54;25.80;55.80
31207;DHT22;17834;52.992;8.856;2023-06-10T13:15:22;25.90;57.50
31207;DHT22;17834;52.992;8.856;2023-06-10T13:17:48;25.90;57.90
31207;DHT22;17834;52.992;8.856;2023-06-10T13:20:15;26.00;55.20
31207;DHT22;17834;52.992;8.856;2023-06-10T13:22:42;26.00;55.30
31207;DHT22;17834;52.992;8.856;2023-06-10T13:25:08;26.00;57.10
31207;DHT22;17834;52.992;8.856;2023-06-10T13:27:34;26.10;56.10
31207;DHT22;17834;52.992;8.856;2023-06-10T13:30:00;26.10;58.90
31207;DHT22;17834;52.992;8.856;2023-06-10T13:32:25;26.10;55.80
31207;DHT22;17834;52.992;8.856;2023-06-10T13:34:51;26.20;58.60
31207;DHT22;17834;52.992;8.856;2023-06-10T13:37:18;26.20;58.70
31207;DHT22;17834;52.992;8.856;2023-06-10T13:39:44;26.20;55.70
31207;DHT22;17834;52.992;8.856;2023-06-10T13:42:12;26.20;55.90
31207;DHT22;17834;52.992;8.856;2023-06-10T13:44:37;26.30;57.80
31207;DHT22;17834;52.992;8.856;2023-06-10T13:47:03;26.40;58.00
31207;DHT22;17834;52.992;8.856;2023-06-10T13:49:29;26.40;55.90
31207;DHT22;17834;52.992;8.856;2023-06-10T13:51:55;26.40;58.10
31207;DHT22;17834;52.992;8.856;2023-06-10T13:54:20;26.50;61.50
31207;DHT22;17834;52.992;8.856;2023-06-10T13:56:46;26.40;59.90
31207;DHT22;17834;52.992;8.856;2023-06-10T13:59:12;26.30;57.80
31207;DHT22;17834;52.992;8.856;2023-06-10T14:01:37;26.40;58.60
31207;DHT22;17834;52.992;8.856;2023-06-10T14:04:03;26.50;58.40
31207;DHT22;17834;52.992;8.856;2023-06-10T14:06:29;26.50;58.10
31207;DHT22;17834;52.992;8.856;2023-06-10T14:08:55;26.60;59.90
31207;DHT22;17834;52.992;8.856;2023-06-10T14:11:21;26.70;59.20
31207;DHT22;17834;52.992;8.856;2023-06-10T14:13:47;26.80;61.30
31207;DHT22;17834;52.992;8.856;2023-06-10T14:16:12;26.80;62.90
31207;DHT22;17834;52.992;8.856;2023-06-10T14:18:38;26.70;58.90
31207;DHT22;17834;52.992;8.856;2023-06-10T14:21:03;26.60;59.40
31207;DHT22;17834;52.992;8.856;2023-06-10T14:23:29;26.60;60.30
31207;DHT22;17834;52.992;8.856;2023-06-10T14:25:55;26.70;61.60
31207;DHT22;17834;52.992;8.856;2023-06-10T14:28:21;26.60;60.50
31207;DHT22;17834;52.992;8.856;2023-06-10T14:30:46;26.60;62.00
31207;DHT22;17834;52.992;8.856;2023-06-10T14:33:11;26.50;62.50
31207;DHT22;17834;52.992;8.856;2023-06-10T14:35:37;26.40;64.10
31207;DHT22;17834;52.992;8.856;2023-06-10T14:38:02;26.30;62.70
31207;DHT22;17834;52.992;8.856;2023-06-10T14:40:28;26.40;62.70
31207;DHT22;17834;52.992;8.856;2023-06-10T14:42:55;26.50;61.80
31207;DHT22;17834;52.992;8.856;2023-06-10T14:45:20;26.70;61.70
31207;DHT22;17834;52.992;8.856;2023-06-10T14:47:46;26.80;63.20
31207;DHT22;17834;52.992;8.856;2023-06-10T14:50:12;26.80;62.80
31207;DHT22;17834;52.992;8.856;2023-06-10T14:52:38;26.80;63.40
31207;DHT22;17834;52.992;8.856;2023-06-10T14:55:04;26.80;62.50
31207;DHT22;17834;52.992;8.856;2023-06-10T14:57:29;26.80;62.10
31207;DHT22;17834;52.992;8.856;2023-06-10T14:59:55;26.90;62.70
31207;DHT22;17834;52.992;8.856;2023-06-10T15:02:22;26.90;63.10
31207;DHT22;17834;52.992;8.856;2023-06-10T15:04:47;26.90;62.80
31207;DHT22;17834;52.992;8.856;2023-06-10T15:07:13;27.00;62.20
31207;DHT22;17834;52.992;8.856;2023-06-10T15:09:41;27.10;62.00
31207;DHT22;17834;52.992;8.856;2023-06-10T15:12:06;27.20;61.40
31207;DHT22;17834;52.992;8.856;2023-06-10T15:14:32;27.20;62.10
31207;DHT22;17834;52.992;8.856;2023-06-10T15:16:58;27.20;63.90
31207;DHT22;17834;52.992;8.856;2023-06-10T15:19:24;27.20;63.60
31207;DHT22;17834;52.992;8.856;2023-06-10T15:21:50;27.20;60.50
31207;DHT22;17834;52.992;8.856;2023-06-10T15:24:16;27.20;61.10
31207;DHT22;17834;52.992;8.856;2023-06-10T15:26:41;27.30;61.00
31207;DHT22;17834;52.992;8.856;2023-06-10T15:29:06;27.40;63.30
31207;DHT22;17834;52.992;8.856;2023-06-10T15:31:32;27.40;62.00
31207;DHT22;17834;52.992;8.856;2023-06-10T15:33:59;27.50;61.90
31207;DHT22;17834;52.992;8.856;2023-06-10T15:36:25;27.60;61.50
31207;DHT22;17834;52.992;8.856;2023-06-10T15:38:51;27.60;60.50
31207;DHT22;17834;52.992;8.856;2023-06-10T15:41:17;27.60;58.80
31207;DHT22;17834;52.992;8.856;2023-06-10T15:43:42;27.60;58.80